createdAt,value
2019-03-31T00:02:02.754Z,31.03
2019-03-31T00:04:45.624Z,32.97
2019-03-31T00:07:16.450Z,35.77
2019-03-31T00:09:47.262Z,30.57
2019-03-31T00:12:18.967Z,36.60
2019-03-31T00:14:49.797Z,30.40
2019-03-31T00:17:20.529Z,36.07
2019-03-31T00:19:51.350Z,31.87
2019-03-31T00:22:22.144Z,35.23
2019-03-31T00:24:53.616Z,36.50
2019-03-31T00:27:24.749Z,37.40
2019-03-31T00:29:55.845Z,37.60
2019-03-31T00:32:26.882Z,40.37
2019-03-31T00:34:58.812Z,40.57
2019-03-31T00:37:41.845Z,36.57
2019-03-31T00:40:12.908Z,34.27
2019-03-31T00:42:43.613Z,38.53
2019-03-31T00:45:14.406Z,43.80
2019-03-31T00:47:45.150Z,39.17
2019-03-31T00:50:16.264Z,40.60
2019-03-31T00:52:47.915Z,40.63
2019-03-31T00:55:18.694Z,43.67
2019-03-31T00:57:49.674Z,37.80
2019-03-31T01:00:41.576Z,37.20
2019-03-31T01:03:12.596Z,40.00
2019-03-31T01:05:45.251Z,40.73
2019-03-31T01:08:16.644Z,39.07
2019-03-31T01:10:48.348Z,45.73
2019-03-31T01:13:19.777Z,46.67
2019-03-31T01:15:51.461Z,43.37
2019-03-31T01:18:22.959Z,43.50
2019-03-31T01:20:54.288Z,45.10
2019-03-31T01:23:25.022Z,42.00
2019-03-31T01:25:56.864Z,43.13
2019-03-31T01:28:28.367Z,42.57
2019-03-31T01:31:00.678Z,39.80
2019-03-31T01:33:32.330Z,47.47
2019-03-31T01:36:03.228Z,47.80
2019-03-31T01:38:34.323Z,49.00
2019-03-31T01:41:05.356Z,46.20
2019-03-31T01:43:36.463Z,47.77
2019-03-31T01:46:09.223Z,48.50
2019-03-31T01:48:40.397Z,48.83
2019-03-31T01:51:11.356Z,53.00
2019-03-31T01:53:42.107Z,44.60
2019-03-31T01:56:13.212Z,46.93
2019-03-31T01:58:44.259Z,52.03
2019-03-31T02:01:16.451Z,53.37
2019-03-31T02:03:47.894Z,57.27
2019-03-31T02:06:18.642Z,51.60
2019-03-31T02:08:49.747Z,55.23
2019-03-31T02:11:20.486Z,60.83
2019-03-31T02:13:51.525Z,58.53
2019-03-31T02:16:22.607Z,60.63
2019-03-31T02:18:53.643Z,69.63
2019-03-31T02:21:24.673Z,62.77
2019-03-31T02:23:55.980Z,64.17
2019-03-31T02:26:26.739Z,66.03
2019-03-31T02:28:57.563Z,63.20
2019-03-31T02:31:28.335Z,62.90
2019-03-31T02:33:59.344Z,60.00
2019-03-31T02:36:30.356Z,65.03
2019-03-31T02:39:01.609Z,64.07
2019-03-31T02:41:32.964Z,62.23
2019-03-31T02:44:04.576Z,67.13
2019-03-31T02:46:35.997Z,68.20
2019-03-31T02:49:07.138Z,77.80
2019-03-31T02:51:38.301Z,68.10
2019-03-31T02:54:09.530Z,63.17
2019-03-31T02:56:41.411Z,69.27
2019-03-31T02:59:15.288Z,69.67
2019-03-31T03:01:48.129Z,59.47
2019-03-31T03:04:21.602Z,69.70
2019-03-31T03:06:55.073Z,68.67
2019-03-31T03:09:27.615Z,69.33
2019-03-31T03:12:00.126Z,75.83
2019-03-31T03:14:35.285Z,78.53
2019-03-31T03:17:06.109Z,79.27
2019-03-31T03:19:37.766Z,68.57
2019-03-31T03:22:08.780Z,72.30
2019-03-31T03:24:39.795Z,77.50
2019-03-31T03:27:10.921Z,68.50
2019-03-31T03:29:41.907Z,68.87
2019-03-31T03:32:13.255Z,77.60
2019-03-31T03:34:44.309Z,70.07
2019-03-31T03:37:15.451Z,85.13
2019-03-31T03:39:46.467Z,75.60
2019-03-31T03:42:17.382Z,66.80
2019-03-31T03:44:48.999Z,73.93
2019-03-31T03:47:19.775Z,74.93
2019-03-31T03:49:51.118Z,80.37
2019-03-31T03:52:22.208Z,82.07
2019-03-31T03:54:53.202Z,80.63
2019-03-31T03:57:24.694Z,85.40
2019-03-31T03:59:56.044Z,97.63
2019-03-31T04:02:26.752Z,95.17
2019-03-31T04:04:57.760Z,101.83
2019-03-31T04:07:28.787Z,98.13
2019-03-31T04:10:00.579Z,98.83
2019-03-31T04:12:32.379Z,102.53
2019-03-31T04:15:04.026Z,109.97
2019-03-31T04:17:35.124Z,109.83
2019-03-31T04:20:06.434Z,94.67
2019-03-31T04:22:37.441Z,93.03
2019-03-31T04:25:08.291Z,101.20
2019-03-31T04:27:39.850Z,98.70
2019-03-31T04:30:10.786Z,91.17
2019-03-31T04:32:41.513Z,88.00
2019-03-31T04:35:12.240Z,84.10
2019-03-31T04:37:43.320Z,85.90
2019-03-31T04:40:14.341Z,99.60
2019-03-31T04:42:45.431Z,90.27
2019-03-31T04:45:16.328Z,95.60
2019-03-31T04:47:47.580Z,97.37
2019-03-31T04:50:18.724Z,95.37
2019-03-31T04:52:50.033Z,95.13
2019-03-31T04:55:21.420Z,102.10
2019-03-31T04:57:52.831Z,94.10
2019-03-31T05:00:23.542Z,100.00
2019-03-31T05:02:54.889Z,96.83
2019-03-31T05:05:25.985Z,97.50
2019-03-31T05:07:57.338Z,92.33
2019-03-31T05:10:28.445Z,87.13
2019-03-31T05:13:00.184Z,103.93
2019-03-31T05:15:31.706Z,93.53
2019-03-31T05:18:03.043Z,96.73
2019-03-31T05:20:33.903Z,101.47
2019-03-31T05:23:04.649Z,107.67
2019-03-31T05:25:35.421Z,102.17
2019-03-31T05:28:07.411Z,101.70
2019-03-31T05:30:38.137Z,102.10
2019-03-31T05:33:09.169Z,109.20
2019-03-31T05:35:39.962Z,106.97
2019-03-31T05:38:10.856Z,105.27
2019-03-31T05:40:41.836Z,106.30
2019-03-31T05:43:13.251Z,109.27
2019-03-31T05:45:44.153Z,112.67
2019-03-31T05:48:15.284Z,122.57
2019-03-31T05:50:46.336Z,100.87
2019-03-31T05:53:17.160Z,109.33
2019-03-31T05:55:47.901Z,102.97
2019-03-31T05:58:18.644Z,111.33
2019-03-31T06:00:50.880Z,110.30
2019-03-31T06:03:22.027Z,106.50
2019-03-31T06:05:53.362Z,111.50
2019-03-31T06:08:24.104Z,115.27
2019-03-31T06:10:55.195Z,116.37
2019-03-31T06:13:26.072Z,103.97
2019-03-31T06:15:56.972Z,102.37
2019-03-31T06:18:27.731Z,109.57
2019-03-31T06:20:58.931Z,102.97
2019-03-31T06:23:29.850Z,106.03
2019-03-31T06:26:01.049Z,99.37
2019-03-31T06:28:32.741Z,109.60
2019-03-31T06:31:04.106Z,100.03
2019-03-31T06:33:35.228Z,109.00
2019-03-31T06:36:06.750Z,103.67
2019-03-31T06:38:37.779Z,106.07
2019-03-31T06:41:09.498Z,125.37
2019-03-31T06:43:40.497Z,121.53
2019-03-31T06:46:11.799Z,120.23
2019-03-31T06:48:43.618Z,127.70
2019-03-31T06:51:17.054Z,131.93
2019-03-31T06:53:48.193Z,123.80
2019-03-31T06:56:18.998Z,127.30
2019-03-31T06:58:49.716Z,124.13
2019-03-31T07:01:21.100Z,153.03
2019-03-31T07:03:51.992Z,135.23
2019-03-31T07:06:24.177Z,144.67
2019-03-31T07:08:54.994Z,139.17
2019-03-31T07:11:25.843Z,121.67
2019-03-31T07:13:56.892Z,123.13
2019-03-31T07:16:28.570Z,124.87
2019-03-31T07:19:00.353Z,131.27
2019-03-31T07:21:31.100Z,121.10
2019-03-31T07:24:02.487Z,113.73
2019-03-31T07:26:33.256Z,105.87
2019-03-31T07:29:04.440Z,99.90
2019-03-31T07:31:35.534Z,99.53
2019-03-31T07:34:06.367Z,110.60
2019-03-31T07:36:37.693Z,104.93
2019-03-31T07:39:09.271Z,96.43
2019-03-31T07:41:40.845Z,105.53
2019-03-31T07:44:15.383Z,98.77
2019-03-31T07:46:46.464Z,101.97
2019-03-31T07:49:17.509Z,111.40
2019-03-31T07:51:48.520Z,109.07
2019-03-31T07:54:19.596Z,102.53
2019-03-31T07:56:50.843Z,106.13
2019-03-31T07:59:21.630Z,116.67
2019-03-31T08:01:53.624Z,100.27
2019-03-31T08:04:25.081Z,101.47
2019-03-31T08:06:56.147Z,96.60
2019-03-31T08:09:26.893Z,81.97
2019-03-31T08:11:59.387Z,89.33
2019-03-31T08:14:31.401Z,82.07
2019-03-31T08:17:02.926Z,81.77
2019-03-31T08:19:34.808Z,75.77
2019-03-31T08:22:05.834Z,64.20
2019-03-31T08:24:46.179Z,68.27
2019-03-31T08:27:17.803Z,65.17
2019-03-31T08:29:59.902Z,70.63
2019-03-31T08:32:22.479Z,67.03
2019-03-31T08:34:53.605Z,63.10
2019-03-31T08:37:24.696Z,66.80
2019-03-31T08:39:57.042Z,62.60
2019-03-31T08:42:28.928Z,57.77
2019-03-31T08:45:00.372Z,73.00
2019-03-31T08:47:31.434Z,58.53
2019-03-31T08:50:02.841Z,61.63
2019-03-31T08:52:34.043Z,55.33
2019-03-31T08:55:06.083Z,49.57
2019-03-31T08:57:47.757Z,57.30
2019-03-31T09:00:28.746Z,57.43
2019-03-31T09:03:00.454Z,55.37
2019-03-31T09:05:33.633Z,50.87
2019-03-31T09:08:09.135Z,54.47
2019-03-31T09:10:41.116Z,52.70
2019-03-31T09:13:12.590Z,45.60
2019-03-31T09:15:43.785Z,41.80
2019-03-31T09:18:15.134Z,34.27
2019-03-31T09:20:46.630Z,36.33
2019-03-31T09:23:17.422Z,34.40
2019-03-31T09:25:48.627Z,38.70
2019-03-31T09:28:19.392Z,35.57
2019-03-31T09:30:50.433Z,36.07
2019-03-31T09:33:21.248Z,35.17
2019-03-31T09:35:52.400Z,35.00
2019-03-31T09:38:23.277Z,35.87
2019-03-31T09:40:54.817Z,33.67
2019-03-31T09:43:25.566Z,18.10
2019-03-31T09:45:56.717Z,24.33
2019-03-31T09:48:27.683Z,25.00
2019-03-31T09:50:58.657Z,27.43
2019-03-31T09:53:30.069Z,23.70
2019-03-31T09:56:02.072Z,24.53
2019-03-31T09:58:33.114Z,15.50
2019-03-31T10:01:07.930Z,19.83
2019-03-31T10:03:38.412Z,28.83
2019-03-31T10:06:10.969Z,26.27
2019-03-31T10:08:42.326Z,25.93
2019-03-31T10:11:13.751Z,28.27
2019-03-31T10:13:44.815Z,22.03
2019-03-31T10:16:15.654Z,19.97
2019-03-31T10:18:49.693Z,21.63
2019-03-31T10:21:20.503Z,15.57
2019-03-31T10:23:54.274Z,24.27
2019-03-31T10:26:31.736Z,17.70
2019-03-31T10:28:58.242Z,20.53
2019-03-31T10:31:30.506Z,13.53
2019-03-31T10:34:05.907Z,14.20
2019-03-31T10:36:44.497Z,13.83
2019-03-31T10:39:12.327Z,10.80
2019-03-31T10:41:46.320Z,12.77
2019-03-31T10:44:19.974Z,10.50
2019-03-31T10:46:51.492Z,8.20
2019-03-31T10:49:22.830Z,17.67
2019-03-31T10:51:54.488Z,14.77
2019-03-31T10:54:25.753Z,7.17
2019-03-31T10:56:56.776Z,7.30
2019-03-31T10:59:30.199Z,7.03
2019-03-31T11:02:10.461Z,9.37
2019-03-31T11:04:42.737Z,7.70
2019-03-31T11:07:15.632Z,11.40
2019-03-31T11:09:47.868Z,10.10
2019-03-31T11:13:18.186Z,10.47
2019-03-31T11:15:52.494Z,12.63
2019-03-31T11:18:23.873Z,6.87
2019-03-31T11:20:55.444Z,9.67
2019-03-31T11:23:28.197Z,10.50
2019-03-31T11:25:59.282Z,12.63
2019-03-31T11:28:30.397Z,6.93
2019-03-31T11:31:01.107Z,6.60
2019-03-31T11:33:31.856Z,6.83
2019-03-31T11:36:02.608Z,6.40
2019-03-31T11:38:34.218Z,6.40
2019-03-31T11:41:05.336Z,3.97
2019-03-31T11:43:36.538Z,6.03
2019-03-31T11:46:07.225Z,4.90
2019-03-31T11:48:37.949Z,4.50
2019-03-31T11:51:09.066Z,7.53
2019-03-31T11:53:40.301Z,6.50
2019-03-31T11:56:11.276Z,4.73
2019-03-31T11:58:41.959Z,6.23
2019-03-31T12:01:12.813Z,5.63
2019-03-31T12:03:43.504Z,6.20
2019-03-31T12:06:14.262Z,5.90
2019-03-31T12:08:44.932Z,11.17
2019-03-31T12:11:16.223Z,6.73
2019-03-31T12:13:46.884Z,8.80
2019-03-31T12:16:17.902Z,8.60
2019-03-31T12:18:48.560Z,6.17
2019-03-31T12:21:19.272Z,10.30
2019-03-31T12:23:49.957Z,8.27
2019-03-31T12:26:20.756Z,9.27
2019-03-31T12:28:51.457Z,12.00
2019-03-31T12:31:22.671Z,6.83
2019-03-31T12:33:53.403Z,7.00
2019-03-31T12:36:24.207Z,12.53
2019-03-31T12:38:54.924Z,9.40
2019-03-31T12:41:25.628Z,7.10
2019-03-31T12:43:56.294Z,9.90
2019-03-31T12:46:26.952Z,6.03
2019-03-31T12:48:58.141Z,8.40
2019-03-31T12:51:28.802Z,8.23
2019-03-31T12:53:59.498Z,8.87
2019-03-31T12:56:30.265Z,5.80
2019-03-31T12:59:00.971Z,9.10
2019-03-31T13:01:31.659Z,7.03
2019-03-31T13:04:02.653Z,7.93
2019-03-31T13:06:33.348Z,10.77
2019-03-31T13:09:05.702Z,10.47
2019-03-31T13:11:36.489Z,7.40
2019-03-31T13:14:07.217Z,9.73
2019-03-31T13:16:37.911Z,8.43
2019-03-31T13:19:09.066Z,6.00
2019-03-31T13:21:40.610Z,5.73
2019-03-31T13:24:11.305Z,7.67
2019-03-31T13:26:42.001Z,9.60
2019-03-31T13:29:12.747Z,5.53
2019-03-31T13:31:43.479Z,4.50
2019-03-31T13:34:15.548Z,6.80
2019-03-31T13:36:46.879Z,10.30
2019-03-31T13:39:17.718Z,6.30
2019-03-31T13:41:48.504Z,5.40
2019-03-31T13:44:19.216Z,5.27
2019-03-31T13:46:49.909Z,6.97
2019-03-31T13:49:20.608Z,8.03
2019-03-31T13:51:51.273Z,5.47
2019-03-31T13:54:22.229Z,5.77
2019-03-31T13:56:53.885Z,4.70
2019-03-31T13:59:25.295Z,6.27
2019-03-31T14:01:56.011Z,5.20
2019-03-31T14:04:26.707Z,3.90
2019-03-31T14:06:57.329Z,6.40
2019-03-31T14:09:28.391Z,5.03
2019-03-31T14:11:59.070Z,3.83
2019-03-31T14:14:30.120Z,6.57
2019-03-31T14:17:00.801Z,7.30
2019-03-31T14:19:31.486Z,6.47
2019-03-31T14:22:02.185Z,6.30
2019-03-31T14:24:33.152Z,5.53
2019-03-31T14:27:04.233Z,3.40
2019-03-31T14:29:34.896Z,7.27
2019-03-31T14:32:05.615Z,2.33
2019-03-31T14:34:36.618Z,5.87
2019-03-31T14:37:07.411Z,5.43
2019-03-31T14:39:38.700Z,4.30
2019-03-31T14:42:10.052Z,6.73
2019-03-31T14:44:40.881Z,5.27
2019-03-31T14:47:12.648Z,5.20
2019-03-31T14:49:43.692Z,4.93
2019-03-31T14:52:26.789Z,8.70
2019-03-31T14:54:46.941Z,2.90
2019-03-31T14:57:17.758Z,6.00
2019-03-31T14:59:48.592Z,5.73
2019-03-31T15:02:19.762Z,6.70
2019-03-31T15:04:50.893Z,6.03
2019-03-31T15:07:21.639Z,7.20
2019-03-31T15:09:52.385Z,7.43
2019-03-31T15:12:23.239Z,10.37
2019-03-31T15:14:54.373Z,8.87
2019-03-31T15:17:26.352Z,10.17
2019-03-31T15:19:57.310Z,7.80
2019-03-31T15:22:28.048Z,4.93
2019-03-31T15:24:58.776Z,7.37
2019-03-31T15:27:29.766Z,13.73
2019-03-31T15:30:00.545Z,6.43
2019-03-31T15:32:31.271Z,10.20
2019-03-31T15:35:02.424Z,6.13
2019-03-31T15:37:33.257Z,8.00
2019-03-31T15:40:04.400Z,9.93
2019-03-31T15:42:35.152Z,7.87
2019-03-31T15:45:06.489Z,8.00
2019-03-31T15:47:37.463Z,11.43
2019-03-31T15:50:09.352Z,8.23
2019-03-31T15:52:40.005Z,5.90
2019-03-31T15:55:11.267Z,5.30
2019-03-31T15:57:41.940Z,13.93
2019-03-31T16:00:15.137Z,5.47
2019-03-31T16:02:46.399Z,8.80
2019-03-31T16:05:17.687Z,3.97
2019-03-31T16:07:48.138Z,13.80
2019-03-31T16:10:18.583Z,6.60
2019-03-31T16:12:48.543Z,5.93
2019-03-31T16:15:18.913Z,5.73
2019-03-31T16:17:49.103Z,4.37
2019-03-31T16:20:19.273Z,17.40
2019-03-31T16:22:49.624Z,9.67
2019-03-31T16:25:24.945Z,6.03
2019-03-31T16:27:55.119Z,6.73
2019-03-31T16:30:25.174Z,13.70
2019-03-31T16:32:55.563Z,4.33
2019-03-31T16:35:25.927Z,7.03
2019-03-31T16:37:55.839Z,7.80
2019-03-31T16:40:25.729Z,5.37
2019-03-31T16:42:56.090Z,3.43
2019-03-31T16:45:25.987Z,7.50
2019-03-31T16:47:56.946Z,3.40
2019-03-31T16:50:26.776Z,7.00
2019-03-31T16:52:56.882Z,5.03
2019-03-31T16:55:26.753Z,8.07
2019-03-31T16:57:56.695Z,6.10
2019-03-31T17:00:26.689Z,3.43
2019-03-31T17:02:56.546Z,6.10
2019-03-31T17:05:27.041Z,9.70
2019-03-31T17:07:57.191Z,4.33
2019-03-31T17:10:27.341Z,6.90
2019-03-31T17:12:58.078Z,5.00
2019-03-31T17:15:28.167Z,3.90
2019-03-31T17:17:58.341Z,6.07
2019-03-31T17:20:28.359Z,9.67
2019-03-31T17:22:58.444Z,5.57
2019-03-31T17:25:28.608Z,4.60
2019-03-31T17:27:58.861Z,10.40
2019-03-31T17:30:28.839Z,10.80
2019-03-31T17:32:58.729Z,8.93
2019-03-31T17:35:28.948Z,10.17
2019-03-31T17:37:59.151Z,5.07
2019-03-31T17:40:29.617Z,3.80
2019-03-31T17:42:59.610Z,4.70
2019-03-31T17:45:30.802Z,4.80
2019-03-31T17:48:00.898Z,10.50
2019-03-31T17:50:30.816Z,2.43
2019-03-31T17:53:03.836Z,5.47
2019-03-31T17:55:33.018Z,4.30
2019-03-31T17:58:02.895Z,7.23
2019-03-31T18:00:32.763Z,9.10
2019-03-31T18:03:02.642Z,6.73
2019-03-31T18:05:32.536Z,6.53
2019-03-31T18:08:02.809Z,4.67
2019-03-31T18:10:32.632Z,7.20
2019-03-31T18:13:02.509Z,4.27
2019-03-31T18:15:32.382Z,5.63
2019-03-31T18:18:02.244Z,2.93
2019-03-31T18:20:32.133Z,5.90
2019-03-31T18:23:02.028Z,5.00
2019-03-31T18:25:31.939Z,6.63
2019-03-31T18:28:01.855Z,3.80
2019-03-31T18:30:31.752Z,4.40
2019-03-31T18:33:01.626Z,4.30
2019-03-31T18:35:31.442Z,6.50
2019-03-31T18:38:01.286Z,3.60
2019-03-31T18:40:35.174Z,7.03
2019-03-31T18:43:02.983Z,7.17
2019-03-31T18:45:32.891Z,4.10
2019-03-31T18:48:03.232Z,8.50
2019-03-31T18:50:33.097Z,7.00
2019-03-31T18:53:03.727Z,3.17
2019-03-31T18:55:51.533Z,8.40
2019-03-31T18:58:30.203Z,4.60
2019-03-31T19:01:25.032Z,7.07
2019-03-31T19:04:08.614Z,6.27
2019-03-31T19:06:43.995Z,7.20
2019-03-31T19:09:32.705Z,7.60
2019-03-31T19:12:20.433Z,9.30
2019-03-31T19:15:27.444Z,7.50
2019-03-31T19:18:13.450Z,5.80
2019-03-31T19:21:11.085Z,8.80
2019-03-31T19:23:46.983Z,6.33
2019-03-31T19:26:48.253Z,6.83
2019-03-31T19:29:33.628Z,10.60
2019-03-31T19:32:13.166Z,4.70
2019-03-31T19:35:01.331Z,8.33
2019-03-31T19:37:49.556Z,7.30
2019-03-31T19:40:28.759Z,2.43
2019-03-31T19:43:16.631Z,10.13
2019-03-31T19:46:05.698Z,7.13
2019-03-31T19:48:43.566Z,3.13
2019-03-31T19:51:31.498Z,6.60
2019-03-31T19:54:25.453Z,7.30
2019-03-31T19:57:20.771Z,10.70
2019-03-31T20:00:03.505Z,8.60
2019-03-31T20:02:58.139Z,6.10
2019-03-31T20:05:41.539Z,12.00
2019-03-31T20:08:35.542Z,6.37
2019-03-31T20:11:18.817Z,5.33
2019-03-31T20:14:05.924Z,8.70
2019-03-31T20:16:52.049Z,2.70
2019-03-31T20:19:29.129Z,6.30
2019-03-31T20:22:05.560Z,5.57
2019-03-31T20:24:52.920Z,5.10
2019-03-31T20:27:45.383Z,3.80
2019-03-31T20:30:29.192Z,9.03
2019-03-31T20:33:15.311Z,11.47
2019-03-31T20:35:58.559Z,10.67
2019-03-31T20:38:38.996Z,5.53
2019-03-31T20:41:17.913Z,6.33
2019-03-31T20:43:57.527Z,12.83
2019-03-31T20:46:27.705Z,10.23
2019-03-31T20:48:57.600Z,5.13
2019-03-31T20:51:27.532Z,6.03
2019-03-31T20:53:57.416Z,6.83
2019-03-31T20:56:27.315Z,9.50
2019-03-31T20:58:57.162Z,5.07
2019-03-31T21:01:27.026Z,8.20
2019-03-31T21:03:56.967Z,7.57
2019-03-31T21:06:26.854Z,6.43
2019-03-31T21:08:56.776Z,6.23
2019-03-31T21:11:26.645Z,6.80
2019-03-31T21:13:57.169Z,6.73
2019-03-31T21:16:27.739Z,5.53
2019-03-31T21:18:57.821Z,4.67
2019-03-31T21:21:27.959Z,9.90
2019-03-31T21:23:57.848Z,7.03
2019-03-31T21:26:27.737Z,5.97
2019-03-31T21:28:57.918Z,6.30
2019-03-31T21:31:28.123Z,9.33
2019-03-31T21:33:57.978Z,12.03
2019-03-31T21:36:28.203Z,12.30
2019-03-31T21:38:58.122Z,6.70
2019-03-31T21:41:28.003Z,11.70
2019-03-31T21:43:58.130Z,5.07
2019-03-31T21:46:29.023Z,11.30
2019-03-31T21:48:58.885Z,9.60
2019-03-31T21:51:28.733Z,12.00
2019-03-31T21:53:58.926Z,7.23
2019-03-31T21:56:28.821Z,11.27
2019-03-31T21:58:58.697Z,9.97
2019-03-31T22:01:28.582Z,6.93
2019-03-31T22:03:58.420Z,7.33
2019-03-31T22:06:28.687Z,6.10
2019-03-31T22:08:58.582Z,7.00
2019-03-31T22:11:28.413Z,6.83
2019-03-31T22:13:58.595Z,7.03
2019-03-31T22:16:28.462Z,5.27
2019-03-31T22:18:58.330Z,5.87
2019-03-31T22:21:28.222Z,6.00
2019-03-31T22:23:58.379Z,3.00
2019-03-31T22:26:28.595Z,4.93
2019-03-31T22:28:58.494Z,9.40
2019-03-31T22:31:28.406Z,9.10
2019-03-31T22:33:58.677Z,8.67
2019-03-31T22:36:28.751Z,7.27
2019-03-31T22:38:58.621Z,4.50
2019-03-31T22:41:28.839Z,6.30
2019-03-31T22:43:59.048Z,6.27
2019-03-31T22:46:28.905Z,5.50
2019-03-31T22:48:58.801Z,5.83
2019-03-31T22:51:28.970Z,6.10
2019-03-31T22:53:58.899Z,6.60
2019-03-31T22:56:28.813Z,11.53
2019-03-31T22:58:58.738Z,8.17
2019-03-31T23:01:28.649Z,7.87
2019-03-31T23:03:58.887Z,8.27
2019-03-31T23:06:28.796Z,8.27
2019-03-31T23:08:58.717Z,6.80
2019-03-31T23:11:28.567Z,6.93
2019-03-31T23:13:58.801Z,12.27
2019-03-31T23:16:28.643Z,9.53
2019-03-31T23:18:58.891Z,7.67
2019-03-31T23:21:28.742Z,7.20
2019-03-31T23:23:58.918Z,9.60
2019-03-31T23:26:29.097Z,8.83
2019-03-31T23:28:59.049Z,7.20
2019-03-31T23:31:29.240Z,9.77
2019-03-31T23:33:59.157Z,6.57
2019-03-31T23:36:29.023Z,6.60
2019-03-31T23:38:58.913Z,9.40
2019-03-31T23:41:28.775Z,10.50
2019-03-31T23:43:58.978Z,7.43
2019-03-31T23:46:29.181Z,9.10
2019-03-31T23:48:59.696Z,9.77
2019-03-31T23:51:29.638Z,7.77
2019-03-31T23:53:59.471Z,5.00
2019-03-31T23:56:29.614Z,7.87
2019-03-31T23:58:59.478Z,8.27
